createdAt,value
2022-08-07T00:04:48.094Z,67.32
2022-08-07T00:10:04.857Z,67.64
2022-08-07T00:15:15.169Z,67.94
2022-08-07T00:20:29.720Z,67.96
2022-08-07T00:25:41.580Z,68.03
2022-08-07T00:30:44.789Z,68.03
2022-08-07T00:35:49.810Z,67.83
2022-08-07T00:40:54.095Z,67.86
2022-08-07T00:45:56.910Z,67.90
2022-08-07T00:50:59.835Z,68.09
2022-08-07T00:56:04.683Z,67.99
2022-08-07T01:01:17.550Z,68.06
2022-08-07T01:06:21.923Z,68.26
2022-08-07T01:12:09.677Z,68.43
2022-08-07T01:16:51.042Z,68.55
2022-08-07T01:21:56.393Z,68.67
2022-08-07T01:27:00.916Z,68.82
2022-08-07T01:32:05.387Z,68.84
2022-08-07T01:37:12.175Z,68.82
2022-08-07T01:42:39.583Z,68.91
2022-08-07T01:48:21.486Z,68.95
2022-08-07T01:53:08.765Z,68.89
2022-08-07T01:58:29.178Z,68.79
2022-08-07T02:03:48.573Z,68.90
2022-08-07T02:08:56.564Z,69.01
2022-08-07T02:14:02.636Z,69.20
2022-08-07T02:20:05.372Z,69.11
2022-08-07T02:24:34.837Z,69.43
2022-08-07T02:29:48.742Z,69.34
2022-08-07T02:35:01.004Z,69.23
2022-08-07T02:40:31.093Z,69.28
2022-08-07T02:45:58.495Z,69.27
2022-08-07T02:50:58.221Z,69.23
2022-08-07T02:56:07.254Z,69.70
2022-08-07T03:01:19.121Z,69.24
2022-08-07T03:06:40.139Z,69.27
2022-08-07T03:11:52.567Z,69.26
2022-08-07T03:17:01.059Z,69.25
2022-08-07T03:22:08.152Z,69.28
2022-08-07T03:27:30.355Z,69.30
2022-08-07T03:32:57.140Z,69.21
2022-08-07T03:38:05.026Z,69.22
2022-08-07T03:43:10.045Z,69.44
2022-08-07T03:48:17.436Z,69.33
2022-08-07T03:53:20.333Z,69.51
2022-08-07T03:59:09.712Z,69.33
2022-08-07T04:04:07.705Z,69.62
2022-08-07T04:09:23.107Z,69.70
2022-08-07T04:14:37.351Z,69.71
2022-08-07T04:19:52.920Z,69.57
2022-08-07T04:25:00.994Z,69.75
2022-08-07T04:30:11.916Z,69.79
2022-08-07T04:35:24.166Z,70.10
2022-08-07T04:40:31.346Z,70.33
2022-08-07T04:46:00.348Z,70.45
2022-08-07T04:51:09.532Z,70.82
2022-08-07T04:58:07.577Z,70.92
2022-08-07T05:01:50.619Z,71.08
2022-08-07T05:06:59.952Z,70.58
2022-08-07T05:12:26.520Z,70.15
2022-08-07T05:17:52.994Z,70.61
2022-08-07T05:23:02.640Z,70.61
2022-08-07T05:28:20.852Z,70.62
2022-08-07T05:33:29.591Z,70.49
2022-08-07T05:38:59.994Z,70.39
2022-08-07T05:44:08.302Z,70.22
2022-08-07T05:49:17.357Z,69.67
2022-08-07T05:54:30.521Z,69.87
2022-08-07T05:59:55.918Z,69.94
2022-08-07T06:05:06.107Z,69.92
2022-08-07T06:10:15.384Z,70.15
2022-08-07T06:15:20.331Z,70.03
2022-08-07T06:20:49.801Z,69.53
2022-08-07T06:25:54.281Z,69.03
2022-08-07T06:30:59.773Z,68.69
2022-08-07T06:36:13.194Z,68.43
2022-08-07T06:41:29.324Z,67.70
2022-08-07T06:46:53.175Z,67.06
2022-08-07T06:52:07.550Z,66.21
2022-08-07T06:57:13.586Z,65.25
2022-08-07T07:02:53.725Z,64.39
2022-08-07T07:07:59.946Z,63.67
2022-08-07T07:13:13.193Z,62.65
2022-08-07T07:18:33.075Z,61.27
2022-08-07T07:24:09.776Z,60.65
2022-08-07T07:29:38.638Z,59.56
2022-08-07T07:34:39.793Z,58.83
2022-08-07T07:39:54.703Z,57.64
2022-08-07T07:45:00.752Z,56.79
2022-08-07T07:50:35.769Z,56.35
2022-08-07T07:55:37.839Z,55.40
2022-08-07T08:00:54.690Z,55.04
2022-08-07T08:05:58.475Z,54.39
2022-08-07T08:11:03.861Z,53.09
2022-08-07T08:16:08.402Z,52.18
2022-08-07T08:21:55.445Z,51.81
2022-08-07T08:27:09.651Z,50.99
2022-08-07T08:32:18.739Z,50.28
2022-08-07T08:38:08.132Z,50.72
2022-08-07T08:43:00.966Z,50.23
2022-08-07T08:48:10.759Z,49.20
2022-08-07T08:53:20.452Z,48.94
2022-08-07T08:58:31.529Z,46.81
2022-08-07T09:03:48.030Z,47.04
2022-08-07T09:09:01.639Z,46.65
2022-08-07T09:14:13.486Z,45.71
2022-08-07T09:19:51.203Z,44.62
2022-08-07T09:25:07.083Z,44.69
2022-08-07T09:30:20.739Z,44.62
2022-08-07T09:36:03.202Z,44.42
2022-08-07T09:41:36.165Z,42.65
2022-08-07T09:47:50.043Z,42.14
2022-08-07T09:52:35.251Z,43.12
2022-08-07T09:58:32.572Z,42.28
2022-08-07T10:04:06.676Z,41.85
2022-08-07T10:09:42.986Z,41.19
2022-08-07T10:15:15.441Z,41.39
2022-08-07T10:20:33.541Z,41.42
2022-08-07T10:25:51.915Z,41.40
2022-08-07T10:31:13.071Z,41.53
2022-08-07T10:36:29.843Z,42.16
2022-08-07T10:41:46.575Z,42.18
2022-08-07T10:47:00.141Z,41.65
2022-08-07T10:52:13.316Z,40.87
2022-08-07T10:57:34.067Z,40.14
2022-08-07T11:02:49.462Z,38.98
2022-08-07T11:08:08.091Z,38.44
2022-08-07T11:14:57.555Z,38.36
2022-08-07T11:18:50.953Z,38.10
2022-08-07T11:24:03.032Z,38.22
2022-08-07T11:29:13.110Z,38.54
2022-08-07T11:34:42.439Z,37.89
2022-08-07T11:40:03.574Z,36.65
2022-08-07T11:45:20.612Z,36.47
2022-08-07T11:50:44.330Z,36.43
2022-08-07T11:56:26.404Z,36.81
2022-08-07T12:01:59.084Z,36.53
2022-08-07T12:07:22.075Z,35.27
2022-08-07T12:12:38.692Z,35.22
2022-08-07T12:17:58.484Z,34.47
2022-08-07T12:23:21.621Z,34.10
2022-08-07T12:28:53.889Z,33.92
2022-08-07T12:34:01.880Z,33.88
2022-08-07T12:39:09.382Z,33.39
2022-08-07T12:44:34.593Z,33.21
2022-08-07T12:49:51.447Z,32.48
2022-08-07T12:55:05.257Z,32.18
2022-08-07T13:00:12.808Z,31.55
2022-08-07T13:06:02.690Z,32.21
2022-08-07T13:11:22.530Z,32.11
2022-08-07T13:16:36.947Z,32.79
2022-08-07T13:27:02.897Z,32.41
2022-08-07T13:32:32.677Z,32.79
2022-08-07T13:37:55.510Z,32.52
2022-08-07T13:43:11.933Z,32.07
2022-08-07T13:48:27.407Z,31.62
2022-08-07T13:54:00.379Z,31.46
2022-08-07T13:59:05.552Z,32.16
2022-08-07T14:04:17.053Z,31.62
2022-08-07T14:10:01.933Z,30.83
2022-08-07T14:14:57.046Z,30.46
2022-08-07T14:20:40.178Z,30.69
2022-08-07T14:25:39.407Z,30.78
2022-08-07T14:30:52.027Z,30.57
2022-08-07T14:36:00.651Z,30.94
2022-08-07T14:46:33.527Z,30.87
2022-08-07T14:52:03.800Z,30.58
2022-08-07T14:57:11.038Z,30.97
2022-08-07T15:02:33.971Z,30.85
2022-08-07T15:07:51.240Z,32.30
2022-08-07T15:12:58.087Z,33.16
2022-08-07T15:18:05.455Z,33.68
2022-08-07T15:25:02.304Z,32.94
2022-08-07T15:28:59.476Z,33.27
2022-08-07T15:34:21.820Z,33.80
2022-08-07T15:39:56.841Z,33.61
2022-08-07T15:44:54.490Z,34.16
2022-08-07T15:50:05.503Z,34.14
2022-08-07T15:55:15.680Z,34.50
2022-08-07T16:00:31.881Z,35.01
2022-08-07T16:05:39.464Z,36.08
2022-08-07T16:10:48.608Z,37.44
2022-08-07T16:16:06.500Z,37.80
2022-08-07T16:22:02.126Z,37.91
2022-08-07T16:26:59.385Z,38.29
2022-08-07T16:32:06.007Z,38.89
2022-08-07T16:38:02.745Z,39.20
2022-08-07T16:43:09.357Z,39.13
2022-08-07T16:48:58.517Z,39.77
2022-08-07T16:54:34.541Z,40.38
2022-08-07T16:59:51.797Z,40.58
2022-08-07T17:06:02.217Z,40.88
2022-08-07T17:10:43.919Z,40.83
2022-08-07T17:16:06.719Z,41.62
2022-08-07T17:21:19.110Z,41.99
2022-08-07T17:26:35.842Z,42.23
2022-08-07T17:32:06.392Z,42.20
2022-08-07T17:38:05.853Z,42.29
2022-08-07T17:42:58.405Z,42.82
2022-08-07T17:48:12.928Z,43.21
2022-08-07T17:54:01.062Z,43.56
2022-08-07T17:59:05.120Z,43.98
2022-08-07T18:04:24.741Z,44.29
2022-08-07T18:10:04.279Z,44.62
2022-08-07T18:21:07.960Z,45.05
2022-08-07T18:25:49.371Z,45.46
2022-08-07T18:31:08.580Z,45.78
2022-08-07T18:36:32.870Z,45.98
2022-08-07T18:41:58.893Z,46.22
2022-08-07T18:47:22.714Z,46.17
2022-08-07T18:52:56.679Z,46.68
2022-08-07T18:58:29.660Z,46.94
2022-08-07T19:03:43.895Z,47.08
2022-08-07T19:09:09.267Z,47.20
2022-08-07T19:14:51.240Z,47.50
2022-08-07T19:20:04.394Z,47.66
2022-08-07T19:26:22.608Z,48.09
2022-08-07T19:31:05.896Z,48.24
2022-08-07T19:36:05.073Z,48.44
2022-08-07T19:41:14.323Z,48.61
2022-08-07T19:46:26.631Z,48.95
2022-08-07T19:51:51.034Z,49.77
2022-08-07T19:58:01.165Z,49.90
2022-08-07T20:02:31.266Z,50.37
2022-08-07T20:07:48.173Z,50.38
2022-08-07T20:12:57.834Z,50.84
2022-08-07T20:18:04.377Z,51.12
2022-08-07T20:23:23.146Z,51.43
2022-08-07T20:28:37.117Z,51.65
2022-08-07T20:33:43.814Z,51.72
2022-08-07T20:39:00.759Z,52.05
2022-08-07T20:44:19.759Z,52.66
2022-08-07T20:49:58.310Z,53.14
2022-08-07T20:54:53.791Z,53.46
2022-08-07T21:00:09.254Z,53.70
2022-08-07T21:05:17.049Z,54.01
2022-08-07T21:10:43.223Z,54.47
2022-08-07T21:15:58.309Z,54.83
2022-08-07T21:21:05.177Z,55.29
2022-08-07T21:26:22.854Z,55.86
2022-08-07T21:32:42.271Z,56.20
2022-08-07T21:37:12.460Z,56.49
2022-08-07T21:42:42.623Z,56.80
2022-08-07T21:47:57.574Z,57.31
2022-08-07T21:53:08.505Z,57.71
2022-08-07T21:58:30.517Z,58.13
2022-08-07T22:03:43.838Z,58.33
2022-08-07T22:08:55.028Z,58.41
2022-08-07T22:13:59.613Z,58.65
2022-08-07T22:19:20.070Z,59.05
2022-08-07T22:24:38.298Z,59.18
2022-08-07T22:29:50.431Z,59.34
2022-08-07T22:34:56.550Z,59.69
2022-08-07T22:40:05.112Z,59.89
2022-08-07T22:46:04.856Z,60.03
2022-08-07T22:51:06.412Z,60.30
2022-08-07T22:56:10.496Z,60.33
2022-08-07T23:01:42.168Z,60.43
2022-08-07T23:07:40.265Z,60.75
2022-08-07T23:12:57.248Z,61.03
2022-08-07T23:18:12.769Z,61.04
2022-08-07T23:24:06.491Z,61.25
2022-08-07T23:29:43.694Z,61.47
2022-08-07T23:35:11.604Z,61.79
2022-08-07T23:40:36.939Z,62.14
2022-08-07T23:46:02.852Z,62.15
2022-08-07T23:53:01.819Z,61.86
2022-08-07T23:56:54.079Z,62.21
